Time;durP1;ratioP1;P1;durP2;ratioP2;P2;SDS_P1;SDS_P2;PMS_P1;PMS_P2;Temp;Humidity;BMP_temperature;BMP_pressure;BME280_temperature;BME280_humidity;BME280_pressure;Samples;Min_cycle;Max_cycle;Signal;HPM_P1;HPM_P2
2021/03/08 00:02:16;;;;;;;32.27;19.73;;;7.80;60.00;;;;;;4946560;28;20069;-62
2021/03/08 00:04:41;;;;;;;36.20;19.90;;;7.80;59.70;;;;;;4980725;28;20037;-66
2021/03/08 00:07:07;;;;;;;33.30;19.08;;;7.90;59.70;;;;;;4947747;28;20035;-62
2021/03/08 00:09:33;;;;;;;32.22;19.42;;;7.90;59.70;;;;;;4994755;28;20534;-62
2021/03/08 00:11:58;;;;;;;39.53;20.95;;;7.90;59.60;;;;;;4969860;28;20045;-62
2021/03/08 00:14:24;;;;;;;35.83;19.92;;;7.80;59.50;;;;;;4945708;28;20035;-62
2021/03/08 00:16:50;;;;;;;36.97;21.80;;;7.80;59.70;;;;;;4953871;28;20044;-62
2021/03/08 00:19:15;;;;;;;35.25;18.90;;;7.80;59.70;;;;;;4971362;28;20137;-62
2021/03/08 00:21:41;;;;;;;34.90;18.17;;;7.80;59.60;;;;;;5011095;28;20051;-62
2021/03/08 00:24:07;;;;;;;35.50;21.17;;;7.90;59.60;;;;;;4984901;28;20035;-62
2021/03/08 00:26:33;;;;;;;33.65;19.88;;;8.00;59.40;;;;;;4952216;28;20062;-62
2021/03/08 00:28:58;;;;;;;37.15;20.45;;;8.10;59.00;;;;;;4947441;28;20481;-62
2021/03/08 00:31:24;;;;;;;36.08;20.52;;;8.10;59.00;;;;;;4948535;28;20040;-62
2021/03/08 00:33:50;;;;;;;33.33;18.75;;;8.10;58.90;;;;;;4952389;28;20058;-62
2021/03/08 00:36:15;;;;;;;35.67;20.35;;;8.10;59.00;;;;;;4993433;28;20291;-62
2021/03/08 00:38:41;;;;;;;38.00;19.03;;;8.10;59.30;;;;;;4968180;28;20041;-62
2021/03/08 00:41:07;;;;;;;35.25;18.20;;;8.00;59.60;;;;;;4984711;28;20432;-62
2021/03/08 00:43:32;;;;;;;39.03;20.80;;;7.90;59.90;;;;;;4966625;28;20678;-62
2021/03/08 00:45:58;;;;;;;35.40;20.73;;;7.90;59.90;;;;;;4979400;28;20114;-62
2021/03/08 00:48:24;;;;;;;32.22;18.48;;;7.90;59.60;;;;;;4952752;28;20434;-62
2021/03/08 00:50:49;;;;;;;35.67;21.33;;;8.00;59.30;;;;;;4986046;28;20028;-62
2021/03/08 00:53:15;;;;;;;33.00;18.35;;;8.10;59.00;;;;;;4948083;28;20047;-62
2021/03/08 00:55:41;;;;;;;33.45;20.25;;;8.20;59.00;;;;;;4953489;28;20040;-62
2021/03/08 00:58:06;;;;;;;35.70;18.60;;;8.20;59.00;;;;;;4975082;28;20047;-62
2021/03/08 01:00:32;;;;;;;32.23;18.73;;;8.20;59.20;;;;;;4938303;28;20154;-62
2021/03/08 01:02:57;;;;;;;34.50;18.80;;;8.20;59.10;;;;;;4965097;28;20062;-62
2021/03/08 01:05:23;;;;;;;33.63;19.90;;;8.10;59.40;;;;;;4957343;28;20124;-62
2021/03/08 01:07:50;;;;;;;34.33;18.00;;;8.00;59.60;;;;;;4965606;28;20032;-62
2021/03/08 01:10:21;;;;;;;36.08;17.92;;;8.10;59.60;;;;;;5012994;28;20033;-62
2021/03/08 01:12:47;;;;;;;32.90;17.80;;;8.10;59.40;;;;;;4976070;28;20036;-63
2021/03/08 01:15:14;;;;;;;30.90;18.57;;;8.20;59.30;;;;;;4955665;28;20032;-62
2021/03/08 01:17:39;;;;;;;33.10;19.02;;;8.10;59.10;;;;;;5027846;28;20037;-62
2021/03/08 01:20:08;;;;;;;28.83;16.05;;;8.20;59.00;;;;;;4970552;28;20039;-61
2021/03/08 01:22:34;;;;;;;33.95;18.10;;;8.20;59.00;;;;;;4976381;28;20039;-62
2021/03/08 01:25:00;;;;;;;35.55;19.42;;;8.20;59.30;;;;;;4949309;28;20046;-62
2021/03/08 01:27:26;;;;;;;33.33;19.67;;;8.20;59.20;;;;;;4947811;28;20114;-62
2021/03/08 01:29:52;;;;;;;33.10;19.73;;;8.20;59.00;;;;;;4984394;28;20555;-62
2021/03/08 01:32:17;;;;;;;39.20;19.70;;;8.30;58.90;;;;;;4958481;28;20449;-62
2021/03/08 01:34:43;;;;;;;34.35;19.65;;;8.30;58.90;;;;;;4954798;28;20038;-62
2021/03/08 01:37:09;;;;;;;31.83;19.07;;;8.20;59.00;;;;;;4975212;28;20051;-62
2021/03/08 01:39:34;;;;;;;36.05;19.23;;;8.20;59.30;;;;;;4976491;28;20029;-62
2021/03/08 01:42:00;;;;;;;35.10;18.02;;;8.20;59.20;;;;;;4963674;28;20038;-63
2021/03/08 01:44:26;;;;;;;34.17;18.20;;;8.30;59.10;;;;;;4949371;28;20066;-62
2021/03/08 01:46:53;;;;;;;33.13;19.83;;;8.30;59.00;;;;;;4933402;28;20492;-62
2021/03/08 01:49:19;;;;;;;35.03;19.43;;;8.20;59.20;;;;;;4945420;28;20038;-62
2021/03/08 01:51:45;;;;;;;38.13;21.30;;;8.20;59.40;;;;;;5024616;28;20438;-62
2021/03/08 01:54:11;;;;;;;36.95;20.27;;;8.10;59.50;;;;;;4981341;28;20063;-62
2021/03/08 01:56:37;;;;;;;34.10;19.37;;;8.10;59.40;;;;;;4977131;28;20080;-62
2021/03/08 01:59:03;;;;;;;33.60;18.55;;;8.20;59.10;;;;;;4932375;28;20563;-62
2021/03/08 02:01:29;;;;;;;32.10;19.15;;;8.20;59.10;;;;;;5009762;28;20124;-62
2021/03/08 02:03:55;;;;;;;34.92;19.58;;;8.30;58.90;;;;;;4946441;28;20114;-62
2021/03/08 02:06:21;;;;;;;34.92;18.55;;;8.30;59.10;;;;;;5023179;28;20029;-62
2021/03/08 02:08:47;;;;;;;39.20;22.92;;;8.20;59.30;;;;;;4974028;28;20044;-62
2021/03/08 02:11:12;;;;;;;36.37;20.27;;;8.10;59.60;;;;;;4985854;28;20047;-62
2021/03/08 02:13:59;;;;;;;35.58;21.05;;;8.00;59.80;;;;;;4965852;28;20029;-62
2021/03/08 02:16:41;;;;;;;36.10;20.80;;;8.00;59.80;;;;;;5022014;28;20485;-62
2021/03/08 02:19:41;;;;;;;36.20;19.57;;;8.00;59.90;;;;;;4970445;28;20047;-62
2021/03/08 02:22:31;;;;;;;38.92;21.92;;;8.00;60.10;;;;;;4973837;28;20050;-62
2021/03/08 02:25:12;;;;;;;40.75;22.25;;;7.90;60.20;;;;;;5005075;28;20029;-62
2021/03/08 02:27:41;;;;;;;36.63;21.37;;;7.90;60.10;;;;;;4949589;28;20153;-62
2021/03/08 02:30:27;;;;;;;37.25;20.75;;;7.90;60.30;;;;;;4944537;28;20155;-62
2021/03/08 02:32:54;;;;;;;39.77;21.57;;;7.90;60.40;;;;;;4943435;29;20491;-62
2021/03/08 02:35:31;;;;;;;41.17;22.93;;;7.90;60.40;;;;;;4994725;28;20086;-62
2021/03/08 02:38:02;;;;;;;40.13;21.50;;;7.80;60.60;;;;;;4980583;28;20055;-62
2021/03/08 02:40:36;;;;;;;41.33;20.30;;;7.90;60.50;;;;;;4984561;28;20049;-62
2021/03/08 02:43:03;;;;;;;40.87;22.93;;;8.00;60.20;;;;;;4952712;28;20108;-62
2021/03/08 02:45:31;;;;;;;38.95;20.08;;;8.00;60.10;;;;;;4950565;28;20050;-62
2021/03/08 02:48:00;;;;;;;38.35;20.90;;;8.10;60.00;;;;;;5001445;28;20031;-62
2021/03/08 02:50:30;;;;;;;34.97;19.75;;;8.00;60.20;;;;;;5027848;28;20048;-62
2021/03/08 02:53:04;;;;;;;44.67;25.10;;;8.00;60.50;;;;;;4981488;28;20112;-62
2021/03/08 02:55:37;;;;;;;42.38;22.38;;;8.00;60.60;;;;;;5022047;28;20038;-62
2021/03/08 02:58:06;;;;;;;36.70;21.08;;;8.00;60.50;;;;;;4948566;28;20044;-62
2021/03/08 03:00:32;;;;;;;43.22;23.27;;;8.00;60.50;;;;;;4993959;28;20064;-62
2021/03/08 03:03:00;;;;;;;37.67;21.57;;;8.00;60.50;;;;;;4977763;28;20726;-62
2021/03/08 03:05:26;;;;;;;38.03;22.33;;;7.90;60.50;;;;;;4955695;28;20521;-62
2021/03/08 03:07:53;;;;;;;43.15;24.13;;;7.90;60.70;;;;;;4976928;28;20034;-62
2021/03/08 03:10:24;;;;;;;38.45;21.88;;;7.90;60.90;;;;;;5020168;28;20027;-62
2021/03/08 03:12:51;;;;;;;42.20;22.50;;;7.90;61.10;;;;;;4941966;28;20083;-62
2021/03/08 03:15:17;;;;;;;45.47;24.53;;;7.80;61.40;;;;;;4990280;28;20113;-62
2021/03/08 03:17:46;;;;;;;45.20;24.42;;;7.80;61.50;;;;;;4964761;28;20035;-63
2021/03/08 03:20:14;;;;;;;42.37;23.13;;;7.70;61.60;;;;;;5003651;28;20733;-62
2021/03/08 03:22:43;;;;;;;40.37;23.53;;;7.70;61.70;;;;;;5011308;28;20031;-62
2021/03/08 03:25:10;;;;;;;48.50;24.23;;;7.70;61.70;;;;;;4953645;28;20043;-62
2021/03/08 03:27:37;;;;;;;42.23;24.10;;;7.70;61.70;;;;;;4960985;28;20047;-62
2021/03/08 03:30:07;;;;;;;45.47;25.33;;;7.80;61.80;;;;;;4994303;28;20032;-62
2021/03/08 03:32:33;;;;;;;44.53;26.50;;;7.70;61.80;;;;;;4984593;28;20035;-62
2021/03/08 03:34:59;;;;;;;40.93;25.50;;;7.70;62.00;;;;;;4976021;28;20089;-62
2021/03/08 03:37:27;;;;;;;47.60;26.33;;;7.70;62.10;;;;;;4961733;28;20519;-62
2021/03/08 03:39:53;;;;;;;43.90;24.20;;;7.70;62.10;;;;;;5011016;28;20033;-62
2021/03/08 03:42:19;;;;;;;46.07;23.73;;;7.60;62.20;;;;;;4948427;28;20035;-62
2021/03/08 03:44:45;;;;;;;44.37;23.10;;;7.60;62.30;;;;;;4960411;28;20041;-62
2021/03/08 03:47:15;;;;;;;47.20;26.00;;;7.60;62.30;;;;;;4984257;28;20036;-62
2021/03/08 03:49:41;;;;;;;41.40;23.07;;;7.60;62.30;;;;;;4997901;28;20180;-62
2021/03/08 03:52:08;;;;;;;42.57;24.73;;;7.60;62.40;;;;;;4971467;28;20529;-62
2021/03/08 03:54:34;;;;;;;43.70;23.30;;;7.70;62.50;;;;;;4979263;28;20024;-62
2021/03/08 03:57:05;;;;;;;46.07;26.73;;;7.60;62.50;;;;;;4960476;28;20108;-62
2021/03/08 03:59:47;;;;;;;48.90;26.30;;;7.60;62.40;;;;;;4955298;28;20036;-62
2021/03/08 04:02:24;;;;;;;45.23;24.77;;;7.70;62.40;;;;;;4963890;28;20027;-63
2021/03/08 04:04:57;;;;;;;41.83;24.83;;;7.70;62.30;;;;;;4958061;28;20020;-62
2021/03/08 04:07:23;;;;;;;42.22;25.13;;;7.70;62.40;;;;;;4952868;28;20035;-62
2021/03/08 04:09:51;;;;;;;42.37;24.43;;;7.60;62.90;;;;;;4962923;28;20470;-62
2021/03/08 04:12:20;;;;;;;47.07;26.53;;;7.60;62.60;;;;;;4967889;28;20110;-62
2021/03/08 04:14:50;;;;;;;46.17;26.20;;;7.60;62.70;;;;;;4967082;28;21909;-62
2021/03/08 04:17:16;;;;;;;45.67;23.93;;;7.60;62.80;;;;;;4939174;28;20346;-62
2021/03/08 04:19:44;;;;;;;45.03;24.30;;;7.60;62.90;;;;;;4979540;28;20130;-62
2021/03/08 04:22:11;;;;;;;46.78;25.27;;;7.60;63.00;;;;;;4947474;28;20032;-62
2021/03/08 04:24:40;;;;;;;43.93;25.67;;;7.60;63.00;;;;;;4958542;28;20032;-62
2021/03/08 04:27:08;;;;;;;47.23;24.93;;;7.60;63.00;;;;;;4977789;28;20108;-62
2021/03/08 04:29:36;;;;;;;45.57;26.40;;;7.60;63.10;;;;;;4956175;28;20480;-62
2021/03/08 04:32:03;;;;;;;48.75;26.65;;;7.60;63.00;;;;;;4952658;28;20059;-61
2021/03/08 04:34:31;;;;;;;44.70;25.77;;;7.60;63.00;;;;;;4957648;28;20122;-62
2021/03/08 04:36:58;;;;;;;43.40;24.00;;;7.70;63.00;;;;;;5014641;28;20059;-62
2021/03/08 04:39:25;;;;;;;41.55;23.88;;;7.70;62.90;;;;;;4980203;28;20058;-62
2021/03/08 04:41:52;;;;;;;45.57;25.03;;;7.70;62.80;;;;;;4955695;28;20035;-62
2021/03/08 04:44:18;;;;;;;44.73;24.03;;;7.70;63.00;;;;;;4948045;28;20032;-62
2021/03/08 04:46:44;;;;;;;46.42;26.25;;;7.70;63.00;;;;;;4981788;28;20046;-62
2021/03/08 04:49:10;;;;;;;45.83;24.58;;;7.70;63.10;;;;;;4955332;28;20097;-62
2021/03/08 04:51:37;;;;;;;43.07;23.80;;;7.70;63.20;;;;;;4949416;28;20030;-62
2021/03/08 04:54:04;;;;;;;39.87;22.07;;;7.70;63.20;;;;;;4991628;28;20110;-62
2021/03/08 04:56:33;;;;;;;45.33;22.50;;;7.70;63.20;;;;;;5023814;28;20031;-62
2021/03/08 04:59:03;;;;;;;43.17;23.87;;;7.60;63.20;;;;;;4952524;28;20043;-63
2021/03/08 05:01:32;;;;;;;46.00;24.33;;;7.60;63.40;;;;;;4970865;28;20039;-62
2021/03/08 05:03:59;;;;;;;40.43;23.50;;;7.60;63.50;;;;;;4949770;28;20028;-62
2021/03/08 05:06:27;;;;;;;42.23;23.50;;;7.60;63.50;;;;;;4946494;28;20035;-62
2021/03/08 05:08:55;;;;;;;50.25;24.52;;;7.60;63.40;;;;;;4974149;28;20037;-63
2021/03/08 05:11:22;;;;;;;41.57;23.00;;;7.60;63.50;;;;;;4977214;28;20035;-62
2021/03/08 05:13:53;;;;;;;46.33;25.83;;;7.60;63.60;;;;;;4953572;28;20036;-62
2021/03/08 05:16:20;;;;;;;44.10;22.87;;;7.60;63.60;;;;;;4971554;28;20021;-62
2021/03/08 05:18:46;;;;;;;44.67;23.97;;;7.60;63.60;;;;;;4962172;28;20043;-62
2021/03/08 05:21:14;;;;;;;42.50;23.97;;;7.70;63.60;;;;;;4948881;28;20866;-62
2021/03/08 05:23:42;;;;;;;40.75;22.13;;;7.70;63.50;;;;;;4962711;28;20040;-62
2021/03/08 05:26:09;;;;;;;43.17;23.70;;;7.70;63.30;;;;;;4964882;28;20110;-62
2021/03/08 05:28:36;;;;;;;41.67;23.30;;;7.70;63.30;;;;;;4988363;28;20036;-62
2021/03/08 05:31:04;;;;;;;41.60;23.83;;;7.70;63.30;;;;;;4993019;28;20029;-62
2021/03/08 05:33:31;;;;;;;44.20;24.77;;;7.80;63.30;;;;;;4981446;28;20103;-62
2021/03/08 05:35:59;;;;;;;43.40;23.97;;;7.80;63.10;;;;;;4971663;28;20073;-62
2021/03/08 05:38:28;;;;;;;45.67;23.65;;;7.70;63.60;;;;;;5023131;28;20540;-63
2021/03/08 05:41:27;;;;;;;45.13;23.38;;;7.80;63.10;;;;;;4981301;28;20033;-63
2021/03/08 05:43:57;;;;;;;38.67;23.10;;;7.80;63.00;;;;;;4939168;28;20023;-63
2021/03/08 05:46:24;;;;;;;45.70;24.45;;;7.80;63.10;;;;;;4954671;28;20437;-62
2021/03/08 05:49:17;;;;;;;40.55;23.33;;;7.70;63.60;;;;;;5000668;28;20453;-62
2021/03/08 05:52:03;;;;;;;42.20;24.17;;;7.80;63.20;;;;;;4966087;28;20039;-62
2021/03/08 05:54:45;;;;;;;42.42;25.05;;;7.80;63.20;;;;;;4999644;28;20094;-62
2021/03/08 05:57:29;;;;;;;41.83;23.90;;;7.80;63.10;;;;;;4950755;28;20055;-62
2021/03/08 06:00:15;;;;;;;43.70;25.10;;;7.80;63.10;;;;;;4950759;28;20120;-62
2021/03/08 06:02:52;;;;;;;44.15;24.00;;;7.80;63.10;;;;;;4954353;28;20053;-61
2021/03/08 06:05:45;;;;;;;42.47;24.57;;;7.80;63.20;;;;;;4967114;28;20034;-62
2021/03/08 06:08:52;;;;;;;47.93;24.60;;;7.80;63.20;;;;;;4990919;28;20069;-61
2021/03/08 06:11:19;;;;;;;45.10;23.30;;;7.80;63.20;;;;;;4932913;28;20040;-63
2021/03/08 06:13:54;;;;;;;43.67;24.25;;;7.90;63.30;;;;;;4958369;28;20115;-62
2021/03/08 06:16:31;;;;;;;41.13;23.15;;;7.90;63.20;;;;;;4978609;28;20027;-62
2021/03/08 06:18:58;;;;;;;41.97;22.70;;;7.80;63.20;;;;;;4993828;28;20063;-62
2021/03/08 06:21:24;;;;;;;39.75;21.77;;;7.80;63.30;;;;;;4951811;28;20067;-62
2021/03/08 06:23:52;;;;;;;44.03;25.40;;;7.90;63.20;;;;;;5005398;28;20031;-62
2021/03/08 06:26:18;;;;;;;45.50;25.00;;;7.90;63.20;;;;;;4993339;28;20265;-61
2021/03/08 06:28:45;;;;;;;40.50;22.60;;;7.90;63.20;;;;;;4968811;28;20032;-63
2021/03/08 06:31:11;;;;;;;40.25;22.75;;;7.90;63.20;;;;;;5016920;28;20031;-63
2021/03/08 06:33:38;;;;;;;42.90;24.13;;;7.90;63.20;;;;;;4997583;28;20102;-62
2021/03/08 06:36:05;;;;;;;43.28;24.38;;;7.90;63.20;;;;;;4940619;28;20039;-62
2021/03/08 06:38:32;;;;;;;39.22;22.83;;;7.90;63.20;;;;;;4991367;28;20055;-62
2021/03/08 06:41:01;;;;;;;41.73;23.53;;;7.90;63.10;;;;;;5000562;28;20485;-62
2021/03/08 06:43:30;;;;;;;39.38;23.35;;;7.90;63.30;;;;;;4952578;28;20459;-62
2021/03/08 06:45:57;;;;;;;43.25;24.75;;;7.90;63.20;;;;;;5000863;28;20046;-63
2021/03/08 06:48:24;;;;;;;39.38;21.63;;;8.00;63.10;;;;;;4960501;28;20116;-62
2021/03/08 06:51:09;;;;;;;42.80;23.73;;;8.00;63.10;;;;;;4944099;28;20221;-63
2021/03/08 06:53:34;;;;;;;46.67;27.30;;;7.90;63.70;;;;;;4948588;28;20481;-62
2021/03/08 06:56:20;;;;;;;40.60;23.00;;;8.00;63.20;;;;;;4950136;28;20030;-62
2021/03/08 06:59:05;;;;;;;39.15;23.67;;;8.10;63.20;;;;;;4957150;28;20135;-63
2021/03/08 07:01:32;;;;;;;41.38;23.10;;;8.10;63.10;;;;;;5000292;28;20122;-63
2021/03/08 07:03:59;;;;;;;38.63;22.30;;;8.20;63.10;;;;;;5017662;28;20078;-63
2021/03/08 07:06:26;;;;;;;50.47;27.20;;;8.10;63.50;;;;;;5018376;28;20519;-63
2021/03/08 07:08:52;;;;;;;42.70;26.23;;;8.10;62.90;;;;;;4969905;28;20035;-63
2021/03/08 07:11:24;;;;;;;41.70;23.05;;;8.10;63.50;;;;;;5012535;28;20455;-63
2021/03/08 07:13:50;;;;;;;43.45;23.60;;;8.20;63.00;;;;;;4954414;28;20070;-63
2021/03/08 07:16:17;;;;;;;40.03;24.10;;;8.20;63.00;;;;;;4960979;28;20047;-62
2021/03/08 07:18:43;;;;;;;41.75;24.27;;;8.20;62.80;;;;;;4954449;28;20051;-63
2021/03/08 07:21:21;;;;;;;39.33;22.20;;;8.20;63.00;;;;;;4953204;28;20118;-62
2021/03/08 07:23:49;;;;;;;41.65;25.58;;;8.20;62.80;;;;;;4946474;28;20046;-63
2021/03/08 07:26:27;;;;;;;40.20;22.67;;;8.30;62.80;;;;;;4947480;28;20032;-63
2021/03/08 07:29:25;;;;;;;41.45;23.63;;;8.30;62.70;;;;;;4947755;29;20046;-63
2021/03/08 07:31:56;;;;;;;40.65;21.25;;;8.40;62.50;;;;;;5030240;28;20037;-63
2021/03/08 07:34:22;;;;;;;42.15;23.30;;;8.40;62.30;;;;;;4946692;28;20062;-63
2021/03/08 07:37:01;;;;;;;41.85;22.83;;;8.40;62.30;;;;;;4953088;28;20036;-63
2021/03/08 07:39:28;;;;;;;41.72;23.50;;;8.30;62.90;;;;;;4979561;28;20509;-63
2021/03/08 07:42:09;;;;;;;48.95;26.15;;;8.40;62.30;;;;;;4973692;28;20335;-63
2021/03/08 07:44:50;;;;;;;41.42;23.33;;;8.40;62.30;;;;;;4947436;28;20580;-63
2021/03/08 07:47:18;;;;;;;35.75;20.30;;;8.40;62.30;;;;;;4970408;28;20059;-63
2021/03/08 07:49:44;;;;;;;39.38;22.20;;;8.50;62.20;;;;;;4939939;28;20027;-63
2021/03/08 07:52:17;;;;;;;40.25;22.33;;;8.60;62.20;;;;;;4945998;29;20051;-63
2021/03/08 07:55:00;;;;;;;42.30;24.35;;;8.70;62.00;;;;;;4944115;28;20471;-63
2021/03/08 07:57:30;;;;;;;44.70;24.00;;;8.70;61.80;;;;;;4936850;28;20511;-63
2021/03/08 07:59:56;;;;;;;42.25;23.75;;;8.70;61.70;;;;;;4933847;28;20036;-63
2021/03/08 08:02:22;;;;;;;38.72;23.60;;;8.80;61.70;;;;;;4944503;28;20027;-63
2021/03/08 08:04:50;;;;;;;41.83;24.23;;;8.80;61.60;;;;;;4942134;28;20024;-63
2021/03/08 08:07:21;;;;;;;44.30;26.48;;;8.80;61.70;;;;;;4961590;28;20031;-63
2021/03/08 08:09:47;;;;;;;43.97;24.95;;;8.80;61.90;;;;;;4932157;29;20442;-63
2021/03/08 08:12:16;;;;;;;42.35;24.77;;;8.80;61.90;;;;;;4932496;28;20051;-63
2021/03/08 08:14:43;;;;;;;42.70;23.60;;;8.90;61.80;;;;;;4943818;28;20039;-62
2021/03/08 08:17:09;;;;;;;42.03;24.05;;;8.90;61.60;;;;;;4946133;28;20019;-63
2021/03/08 08:19:46;;;;;;;40.28;23.63;;;9.00;61.70;;;;;;4949909;28;20038;-63
2021/03/08 08:22:20;;;;;;;42.05;24.88;;;9.10;61.40;;;;;;4949610;28;20039;-63
2021/03/08 08:24:48;;;;;;;41.08;23.40;;;9.10;61.50;;;;;;4944399;29;20058;-63
2021/03/08 08:27:16;;;;;;;41.20;24.27;;;9.10;61.20;;;;;;4946332;28;20020;-63
2021/03/08 08:29:45;;;;;;;40.42;23.17;;;9.00;60.90;;;;;;4950407;28;20031;-63
2021/03/08 08:32:11;;;;;;;47.28;25.02;;;8.90;61.40;;;;;;4949928;28;20047;-63
2021/03/08 08:34:42;;;;;;;42.75;23.73;;;8.90;61.90;;;;;;4949404;28;20039;-63
2021/03/08 08:37:26;;;;;;;37.40;22.08;;;8.90;61.70;;;;;;4949289;28;20023;-63
2021/03/08 08:39:52;;;;;;;;;;;8.80;62.20;;;;;;4950539;29;20039;-63
2021/03/08 08:42:19;;;;;;;36.80;22.55;;;8.90;61.60;;;;;;4949132;28;19910;-63
2021/03/08 08:44:47;;;;;;;43.22;23.90;;;9.00;61.60;;;;;;4940085;29;20054;-63
2021/03/08 08:47:32;;;;;;;40.70;23.02;;;8.90;61.70;;;;;;4943895;28;20027;-63
2021/03/08 08:50:02;;;;;;;35.72;21.67;;;8.90;61.80;;;;;;4964087;28;20042;-63
2021/03/08 08:52:53;;;;;;;42.35;23.88;;;9.00;61.90;;;;;;4944993;28;20089;-64
2021/03/08 08:55:35;;;;;;;41.30;23.92;;;9.00;61.60;;;;;;4938663;28;20034;-63
2021/03/08 08:58:48;;;;;;;44.85;24.23;;;9.10;61.50;;;;;;5006910;28;20047;-63
2021/03/08 09:01:16;;;;;;;46.70;23.88;;;9.10;61.30;;;;;;5000615;28;20038;-63
2021/03/08 09:04:01;;;;;;;44.50;23.35;;;9.10;61.30;;;;;;5007447;28;20028;-63
2021/03/08 09:06:55;;;;;;;40.50;23.80;;;9.10;61.20;;;;;;4963920;28;20036;-63
2021/03/08 09:09:25;;;;;;;36.53;22.13;;;9.00;61.90;;;;;;5014428;28;20041;-63
2021/03/08 09:12:09;;;;;;;40.75;23.52;;;9.20;61.50;;;;;;4950585;28;20135;-63
2021/03/08 09:14:47;;;;;;;39.85;22.38;;;9.30;61.10;;;;;;4930841;29;20516;-63
2021/03/08 09:17:12;;;;;;;39.30;22.13;;;9.30;61.30;;;;;;4950903;28;20023;-63
2021/03/08 09:19:39;;;;;;;37.83;22.33;;;10.00;61.50;;;;;;4964142;28;20037;-63
2021/03/08 09:22:20;;;;;;;42.97;23.98;;;9.40;61.00;;;;;;4978901;28;20046;-63
2021/03/08 09:24:47;;;;;;;44.75;25.98;;;9.40;60.80;;;;;;4938803;28;20062;-63
2021/03/08 09:27:31;;;;;;;40.83;22.45;;;9.40;60.60;;;;;;4931321;28;20102;-63
2021/03/08 09:30:07;;;;;;;40.38;22.92;;;9.40;60.70;;;;;;4943992;28;20058;-63
2021/03/08 09:32:34;;;;;;;40.67;23.83;;;9.50;60.60;;;;;;4946205;28;20031;-63
2021/03/08 09:35:05;;;;;;;38.17;23.45;;;9.60;60.80;;;;;;4944947;28;20513;-63
2021/03/08 09:37:31;;;;;;;37.35;22.67;;;9.70;60.70;;;;;;4949790;29;20176;-63
2021/03/08 09:39:58;;;;;;;37.63;22.65;;;9.80;60.30;;;;;;4937614;28;20058;-64
2021/03/08 09:42:32;;;;;;;42.78;22.80;;;10.00;60.10;;;;;;4950182;28;20495;-63
2021/03/08 09:44:57;;;;;;;36.63;22.55;;;10.10;59.70;;;;;;4963944;28;20039;-63
2021/03/08 09:47:38;;;;;;;34.92;21.00;;;10.20;59.50;;;;;;4945464;28;20097;-63
2021/03/08 09:50:05;;;;;;;37.72;22.85;;;10.30;59.30;;;;;;4940319;29;20023;-63
2021/03/08 09:52:35;;;;;;;35.25;21.67;;;10.50;59.00;;;;;;4961592;28;20040;-63
2021/03/08 09:55:02;;;;;;;38.75;23.08;;;10.50;59.00;;;;;;4949814;28;20114;-64
2021/03/08 09:57:38;;;;;;;40.50;22.63;;;10.50;59.00;;;;;;4952628;28;20059;-63
2021/03/08 10:00:05;;;;;;;39.20;24.42;;;10.40;59.00;;;;;;4988396;28;20052;-63
2021/03/08 10:02:31;;;;;;;39.72;23.58;;;10.40;59.10;;;;;;4964351;28;20499;-63
2021/03/08 10:04:57;;;;;;;41.40;24.50;;;10.40;59.10;;;;;;4949491;29;20028;-64
2021/03/08 10:07:24;;;;;;;35.38;21.50;;;10.30;59.20;;;;;;4982885;28;20172;-63
2021/03/08 10:10:13;;;;;;;44.83;22.67;;;10.40;59.30;;;;;;4965659;28;20041;-63
2021/03/08 10:12:39;;;;;;;40.58;23.75;;;10.50;59.30;;;;;;4938570;28;20578;-63
2021/03/08 10:15:10;;;;;;;42.75;23.98;;;10.50;59.40;;;;;;4949214;28;20110;-63
2021/03/08 10:18:00;;;;;;;36.60;21.95;;;10.60;59.30;;;;;;4943017;28;20082;-63
2021/03/08 10:20:27;;;;;;;40.03;22.45;;;10.70;59.20;;;;;;4932305;28;20055;-63
2021/03/08 10:22:54;;;;;;;37.80;22.85;;;10.80;59.50;;;;;;4933185;29;20032;-63
2021/03/08 10:25:21;;;;;;;39.78;21.92;;;10.80;59.50;;;;;;5002608;28;20027;-63
2021/03/08 10:27:55;;;;;;;39.25;23.08;;;10.80;59.40;;;;;;4950015;29;20066;-63
2021/03/08 10:30:21;;;;;;;38.78;23.27;;;10.80;59.40;;;;;;4949646;28;20046;-63
2021/03/08 10:32:49;;;;;;;37.67;21.83;;;10.80;59.40;;;;;;4947656;28;20110;-63
2021/03/08 10:35:15;;;;;;;37.58;23.05;;;10.90;59.20;;;;;;4947157;28;20114;-63
2021/03/08 10:37:42;;;;;;;37.42;20.90;;;10.90;59.50;;;;;;4949811;28;20118;-63
2021/03/08 10:40:08;;;;;;;37.55;20.88;;;11.00;59.20;;;;;;4967429;28;20051;-63
2021/03/08 10:42:37;;;;;;;33.13;18.98;;;11.30;59.10;;;;;;4948831;28;20036;-63
2021/03/08 10:45:08;;;;;;;34.05;21.65;;;11.70;57.70;;;;;;4946386;28;20035;-64
2021/03/08 10:47:34;;;;;;;39.15;22.75;;;11.90;56.60;;;;;;4947326;28;20035;-63
2021/03/08 10:50:00;;;;;;;33.63;20.65;;;12.10;56.60;;;;;;4953403;28;20380;-63
2021/03/08 10:52:26;;;;;;;35.58;21.42;;;12.40;55.90;;;;;;4989686;28;20076;-63
2021/03/08 10:54:51;;;;;;;37.90;22.40;;;12.60;55.10;;;;;;4974644;28;20410;-63
2021/03/08 10:57:18;;;;;;;36.35;22.33;;;12.90;55.00;;;;;;4944595;28;20081;-63
2021/03/08 10:59:50;;;;;;;37.20;21.25;;;13.00;54.40;;;;;;4949500;28;20059;-64
2021/03/08 11:02:17;;;;;;;29.63;19.42;;;12.80;53.80;;;;;;4945260;28;20045;-63
2021/03/08 11:04:48;;;;;;;31.83;18.65;;;12.70;54.30;;;;;;4947081;28;20035;-62
2021/03/08 11:07:14;;;;;;;28.65;17.83;;;12.60;54.90;;;;;;4959348;28;20039;-63
2021/03/08 11:09:46;;;;;;;31.58;19.88;;;12.60;55.00;;;;;;4948634;28;20126;-63
2021/03/08 11:12:23;;;;;;;34.30;22.05;;;12.60;55.20;;;;;;4945566;29;20055;-63
2021/03/08 11:14:57;;;;;;;31.95;20.42;;;12.60;55.50;;;;;;4942770;28;20036;-63
2021/03/08 11:17:49;;;;;;;33.90;21.15;;;12.60;55.80;;;;;;4943245;28;20111;-63
2021/03/08 11:20:19;;;;;;;35.20;22.35;;;12.50;55.80;;;;;;4950204;28;20043;-63
2021/03/08 11:22:51;;;;;;;35.80;20.95;;;12.40;55.70;;;;;;4939481;28;20055;-63
2021/03/08 11:25:30;;;;;;;28.08;18.38;;;12.50;56.00;;;;;;4931083;28;20036;-63
2021/03/08 11:27:57;;;;;;;32.45;20.23;;;12.60;55.80;;;;;;4936219;28;20063;-63
2021/03/08 11:30:25;;;;;;;32.08;18.98;;;12.70;55.60;;;;;;4940920;28;20051;-63
2021/03/08 11:32:53;;;;;;;32.53;19.60;;;12.80;55.60;;;;;;4942931;28;20027;-63
2021/03/08 11:35:25;;;;;;;33.30;19.10;;;12.80;54.90;;;;;;4942004;28;20109;-63
2021/03/08 11:37:57;;;;;;;33.63;18.13;;;12.80;54.80;;;;;;4931734;28;20055;-63
2021/03/08 11:40:24;;;;;;;31.35;16.40;;;12.80;54.60;;;;;;4933589;28;20069;-63
2021/03/08 11:42:50;;;;;;;30.40;18.55;;;12.80;54.60;;;;;;4947925;28;20030;-63
2021/03/08 11:45:17;;;;;;;34.03;20.40;;;12.80;54.60;;;;;;4946874;28;20035;-63
2021/03/08 11:47:43;;;;;;;34.10;20.08;;;12.70;54.70;;;;;;4941104;29;20096;-63
2021/03/08 11:50:10;;;;;;;35.88;21.38;;;12.60;54.80;;;;;;4942189;28;20139;-64
2021/03/08 11:52:36;;;;;;;34.60;20.15;;;12.50;54.80;;;;;;4946534;28;20032;-63
2021/03/08 11:55:03;;;;;;;38.42;21.00;;;12.50;54.70;;;;;;4948356;29;20037;-63
2021/03/08 11:57:29;;;;;;;35.00;19.75;;;12.50;54.80;;;;;;4943741;28;20048;-63
2021/03/08 11:59:55;;;;;;;31.48;18.45;;;12.40;54.90;;;;;;5035706;28;20389;-63
2021/03/08 12:02:20;;;;;;;33.53;20.85;;;12.30;55.00;;;;;;4947917;28;20035;-63
2021/03/08 12:04:46;;;;;;;29.63;19.45;;;12.30;54.70;;;;;;4950494;28;20498;-63
2021/03/08 12:07:12;;;;;;;35.05;21.35;;;12.10;55.00;;;;;;4944304;28;20043;-63
2021/03/08 12:09:37;;;;;;;33.08;19.27;;;11.90;55.40;;;;;;4947902;28;20041;-63
2021/03/08 12:12:03;;;;;;;33.88;20.15;;;11.80;55.90;;;;;;4947940;28;20047;-63
2021/03/08 12:14:29;;;;;;;34.60;19.95;;;11.80;56.40;;;;;;4959276;28;20042;-64
2021/03/08 12:16:54;;;;;;;36.33;22.27;;;11.70;56.40;;;;;;4955446;28;20517;-63
2021/03/08 12:19:20;;;;;;;40.63;20.83;;;11.60;57.30;;;;;;4964937;28;20355;-63
2021/03/08 12:21:46;;;;;;;39.78;25.30;;;11.60;57.30;;;;;;4946864;28;20092;-63
2021/03/08 12:24:13;;;;;;;41.67;22.67;;;11.60;57.10;;;;;;4945896;28;20047;-63
2021/03/08 12:26:38;;;;;;;38.03;21.38;;;11.60;57.10;;;;;;4952633;28;20110;-63
2021/03/08 12:29:04;;;;;;;44.47;25.25;;;11.50;57.60;;;;;;4951426;28;20185;-63
2021/03/08 12:31:31;;;;;;;38.75;22.05;;;11.40;57.90;;;;;;4937247;29;20164;-63
2021/03/08 12:33:56;;;;;;;35.05;21.42;;;11.40;58.10;;;;;;5040943;23;20140;-67
2021/03/08 12:36:22;;;;;;;40.17;23.10;;;11.50;57.90;;;;;;5041292;28;20103;-67
2021/03/08 12:38:48;;;;;;;35.30;21.83;;;11.50;57.60;;;;;;5039584;28;20053;-67
2021/03/08 12:41:14;;;;;;;34.72;20.80;;;11.50;57.20;;;;;;5029030;28;20474;-67
2021/03/08 12:43:40;;;;;;;32.65;20.27;;;11.50;57.00;;;;;;5048813;28;20097;-67
2021/03/08 12:46:06;;;;;;;37.83;23.17;;;11.60;57.10;;;;;;5041597;28;20040;-67
2021/03/08 12:48:31;;;;;;;34.70;22.17;;;11.60;57.00;;;;;;5012353;28;20067;-67
2021/03/08 12:50:57;;;;;;;37.42;21.95;;;11.70;57.30;;;;;;5042296;28;20082;-68